Time;durP1;ratioP1;P1;durP2;ratioP2;P2;SDS_P1;SDS_P2;PMS_P1;PMS_P2;Temp;Humidity;BMP_temperature;BMP_pressure;BME280_temperature;BME280_humidity;BME280_pressure;Samples;Min_cycle;Max_cycle;Signal;HPM_P1;HPM_P2
2022/07/13 06:10:38;;;;;;;;;;;;;;;25.87;43.05;97472.25;4205846;27;10233;-76
2022/07/13 06:12:41;;;;;;;;;;;;;;;26.20;42.71;97473.50;4194471;28;6482;-75
2022/07/13 06:14:44;;;;;;;;;;;;;;;26.47;42.30;97470.44;4181529;28;5664;-75
2022/07/13 06:16:46;;;;;;;;;;;;;;;26.66;42.32;97470.59;4195672;28;5083;-76
2022/07/13 06:18:49;;;;;;;;;;;;;;;26.82;41.90;97472.13;4196167;28;5630;-76
2022/07/13 06:20:53;;;;;;;;;;;;;;;26.95;42.16;97476.91;4192883;28;5826;-76
2022/07/13 06:23:11;;;;;;;;;;;;;;;27.07;41.55;97479.34;4190243;28;5571;-76
2022/07/13 06:25:14;;;;;;;;;;;;;;;27.17;41.72;97475.72;4194376;28;5651;-76
2022/07/13 06:27:19;;;;;;;;;;;;;;;27.21;41.84;97477.59;4194808;28;5575;-76
2022/07/13 06:29:21;;;;;;;;;;;;;;;27.32;41.61;97475.59;4179507;28;5664;-76
2022/07/13 06:31:25;;;;;;;;;;;;;;;27.41;41.35;97473.06;4197248;28;5654;-76
2022/07/13 06:33:28;;;;;;;;;;;;;;;27.45;41.38;97476.84;4196203;28;5801;-76
2022/07/13 06:35:32;;;;;;;;;;;;;;;27.49;41.18;97477.88;4196622;28;5733;-76
2022/07/13 06:37:35;;;;;;;;;;;;;;;27.50;41.42;97477.59;4179304;28;5658;-76
2022/07/13 06:39:48;;;;;;;;;;;;;;;27.46;41.39;97481.19;4198181;28;5566;-76
2022/07/13 06:41:51;;;;;;;;;;;;;;;27.43;41.20;97479.84;4180304;28;5781;-76
2022/07/13 06:43:56;;;;;;;;;;;;;;;27.45;40.98;97479.56;4198057;28;5555;-76
2022/07/13 06:46:00;;;;;;;;;;;;;;;27.42;40.87;97483.66;4198036;28;5567;-76
2022/07/13 06:48:03;;;;;;;;;;;;;;;27.43;41.15;97487.19;4198171;28;5614;-75
2022/07/13 06:50:07;;;;;;;;;;;;;;;27.44;40.93;97481.47;4197784;28;5555;-75
2022/07/13 06:52:10;;;;;;;;;;;;;;;27.45;40.86;97485.81;4197937;28;5063;-76
2022/07/13 06:54:13;;;;;;;;;;;;;;;27.47;40.85;97485.50;4180253;28;5729;-76
2022/07/13 06:56:16;;;;;;;;;;;;;;;27.45;40.75;97480.38;4198016;28;5567;-76
2022/07/13 06:58:19;;;;;;;;;;;;;;;27.47;41.06;97485.50;4197874;28;5071;-76
2022/07/13 07:00:23;;;;;;;;;;;;;;;27.49;40.80;97486.03;4197096;28;5690;-76
2022/07/13 07:02:26;;;;;;;;;;;;;;;27.48;40.68;97479.78;4197717;28;5570;-76
2022/07/13 07:04:30;;;;;;;;;;;;;;;27.43;40.64;97487.19;4197597;28;5536;-76
2022/07/13 07:06:34;;;;;;;;;;;;;;;27.40;40.94;97485.03;4197937;28;5539;-76
2022/07/13 07:08:37;;;;;;;;;;;;;;;27.37;40.76;97480.16;4179529;28;5657;-75
2022/07/13 07:10:40;;;;;;;;;;;;;;;27.32;40.50;97486.47;4174103;28;5653;-76
2022/07/13 07:12:43;;;;;;;;;;;;;;;27.25;41.13;97484.06;4170328;28;5734;-76
2022/07/13 07:14:46;;;;;;;;;;;;;;;27.20;40.98;97489.53;4170014;28;5742;-75
2022/07/13 07:16:51;;;;;;;;;;;;;;;27.16;40.92;97490.38;4169876;28;6395;-76
2022/07/13 07:18:54;;;;;;;;;;;;;;;27.11;41.02;97479.56;4169833;28;5829;-76
2022/07/13 07:21:17;;;;;;;;;;;;;;;27.03;40.74;97482.88;4170314;28;5762;-75
2022/07/13 07:23:20;;;;;;;;;;;;;;;27.00;40.81;97484.22;4169955;28;5733;-76
2022/07/13 07:25:23;;;;;;;;;;;;;;;26.95;40.93;97486.94;4169830;28;5765;-77
2022/07/13 07:27:26;;;;;;;;;;;;;;;26.92;40.80;97490.25;4169757;28;5762;-77
2022/07/13 07:29:30;;;;;;;;;;;;;;;26.88;40.72;97497.31;4169887;28;5730;-76
2022/07/13 07:31:34;;;;;;;;;;;;;;;26.83;40.50;97500.06;4169447;28;5734;-76
2022/07/13 07:33:38;;;;;;;;;;;;;;;26.78;40.17;97498.19;4169849;28;5753;-76
2022/07/13 07:35:41;;;;;;;;;;;;;;;26.72;40.24;97495.78;4169754;28;7311;-76
2022/07/13 07:37:44;;;;;;;;;;;;;;;26.69;40.00;97495.25;4169618;28;5868;-77
2022/07/13 07:39:47;;;;;;;;;;;;;;;26.65;39.79;97496.91;4168113;28;5675;-76
2022/07/13 07:41:50;;;;;;;;;;;;;;;26.63;39.34;97504.53;4170060;28;5825;-76
2022/07/13 07:43:53;;;;;;;;;;;;;;;26.59;39.26;97500.72;4169637;28;5739;-76
2022/07/13 07:45:56;;;;;;;;;;;;;;;26.53;39.03;97501.84;4167943;28;7465;-76
2022/07/13 07:47:59;;;;;;;;;;;;;;;26.49;39.27;97506.19;4169939;28;5734;-77
2022/07/13 07:50:05;;;;;;;;;;;;;;;26.49;38.67;97511.63;4169511;28;5057;-76
2022/07/13 07:52:07;;;;;;;;;;;;;;;26.49;38.60;97506.19;4169585;28;5737;-77
2022/07/13 07:54:30;;;;;;;;;;;;;;;26.47;38.83;97504.84;4169417;28;5742;-76
2022/07/13 07:56:34;;;;;;;;;;;;;;;26.45;38.49;97499.72;4169543;28;5633;-77
2022/07/13 07:58:38;;;;;;;;;;;;;;;26.44;38.29;97503.53;4168167;28;5777;-77
2022/07/13 08:00:42;;;;;;;;;;;;;;;26.43;38.14;97504.63;4158748;28;5763;-77
2022/07/13 08:02:45;;;;;;;;;;;;;;;26.34;38.72;97508.94;4153244;28;5806;-77
2022/07/13 08:04:49;;;;;;;;;;;;;;;26.31;38.51;97506.81;4153189;28;5799;-77
2022/07/13 08:06:53;;;;;;;;;;;;;;;26.29;38.27;97507.09;4152712;28;5688;-77
2022/07/13 08:08:56;;;;;;;;;;;;;;;26.30;38.50;97502.47;4160293;28;5208;-76
2022/07/13 08:11:01;;;;;;;;;;;;;;;26.32;38.53;97505.72;4169348;28;5786;-77
2022/07/13 08:13:05;;;;;;;;;;;;;;;26.32;38.05;97501.09;4186103;28;5717;-77
2022/07/13 08:15:09;;;;;;;;;;;;;;;26.34;37.91;97504.34;4187119;28;5647;-76
2022/07/13 08:17:12;;;;;;;;;;;;;;;26.33;38.08;97504.63;4187528;28;5657;-77
2022/07/13 08:19:15;;;;;;;;;;;;;;;26.31;37.71;97504.09;4169202;28;6870;-77
2022/07/13 08:21:38;;;;;;;;;;;;;;;26.32;37.62;97511.13;4187366;28;5662;-77
2022/07/13 08:23:54;;;;;;;;;;;;;;;26.32;37.75;97508.41;4187091;28;5661;-76
2022/07/13 08:25:57;;;;;;;;;;;;;;;26.30;37.79;97507.88;4188362;28;5733;-76
2022/07/13 08:28:00;;;;;;;;;;;;;;;26.30;38.07;97514.13;4187020;28;7699;-76
2022/07/13 08:30:04;;;;;;;;;;;;;;;26.29;37.75;97503.56;4187245;28;5725;-75
2022/07/13 08:32:07;;;;;;;;;;;;;;;26.27;37.59;97506.53;4183583;28;5852;-75
2022/07/13 08:38:54;;;;;;;;;;;;;;;26.34;37.90;97511.66;4184689;28;5570;-75
2022/07/13 08:40:57;;;;;;;;;;;;;;;26.34;37.78;97508.94;4166076;28;5924;-72
2022/07/13 08:43:01;;;;;;;;;;;;;;;26.33;37.34;97512.75;4182993;28;5651;-72
2022/07/13 08:45:04;;;;;;;;;;;;;;;26.33;37.88;97515.47;4166864;28;5798;-72
2022/07/13 08:47:08;;;;;;;;;;;;;;;26.33;37.58;97515.47;4184570;28;5729;-72
2022/07/13 08:49:11;;;;;;;;;;;;;;;26.34;37.58;97514.38;4185073;28;5639;-72
2022/07/13 08:51:17;;;;;;;;;;;;;;;26.35;37.45;97507.84;4185404;28;5650;-72
2022/07/13 08:53:21;;;;;;;;;;;;;;;26.33;37.63;97518.97;4185318;28;5665;-72
2022/07/13 08:55:25;;;;;;;;;;;;;;;26.33;37.43;97512.75;4185141;28;5642;-72
2022/07/13 08:57:29;;;;;;;;;;;;;;;26.32;37.65;97511.13;4184789;28;5662;-71
2022/07/13 08:59:39;;;;;;;;;;;;;;;26.31;37.51;97515.75;4184610;28;5647;-71
2022/07/13 09:01:42;;;;;;;;;;;;;;;26.32;37.41;97508.41;4167919;28;5790;-72
2022/07/13 09:03:51;;;;;;;;;;;;;;;26.31;37.68;97509.50;4168668;28;5689;-72
2022/07/13 09:05:54;;;;;;;;;;;;;;;26.30;37.69;97510.59;4168264;28;5673;-71
2022/07/13 09:08:06;;;;;;;;;;;;;;;26.24;37.69;97507.09;4168417;28;5662;-72
2022/07/13 09:10:09;;;;;;;;;;;;;;;26.27;37.54;97511.13;4167835;28;5664;-72
2022/07/13 09:12:18;;;;;;;;;;;;;;;26.31;37.21;97506.81;4168364;28;5740;-72
2022/07/13 09:14:25;;;;;;;;;;;;;;;26.37;37.44;97508.41;4168292;28;6389;-72
2022/07/13 09:16:29;;;;;;;;;;;;;;;26.41;37.46;97517.63;4167873;28;6335;-72
2022/07/13 09:18:36;;;;;;;;;;;;;;;26.42;37.49;97513.84;4168300;28;5657;-72
2022/07/13 09:20:39;;;;;;;;;;;;;;;26.44;37.73;97508.94;4168158;28;6319;-72
2022/07/13 09:22:47;;;;;;;;;;;;;;;26.46;37.33;97512.19;4168242;28;5658;-72
2022/07/13 09:24:53;;;;;;;;;;;;;;;26.50;37.25;97517.84;4168092;28;5658;-72
2022/07/13 09:26:56;;;;;;;;;;;;;;;26.52;37.41;97513.78;4168436;28;5673;-72
2022/07/13 09:29:01;;;;;;;;;;;;;;;26.53;37.39;97515.41;4167225;28;6438;-72
2022/07/13 09:31:04;;;;;;;;;;;;;;;26.53;37.24;97504.56;4167667;28;5677;-72
2022/07/13 09:33:07;;;;;;;;;;;;;;;26.53;37.17;97501.84;4167524;28;6442;-72
2022/07/13 09:35:10;;;;;;;;;;;;;;;26.52;37.59;97505.66;4167685;28;5657;-72
2022/07/13 09:37:15;;;;;;;;;;;;;;;26.55;37.56;97498.88;4167912;28;5839;-72
2022/07/13 09:39:18;;;;;;;;;;;;;;;26.55;37.14;97505.09;4167924;28;5709;-72
2022/07/13 09:41:23;;;;;;;;;;;;;;;26.58;37.02;97504.53;4167721;28;5670;-72
2022/07/13 09:48:13;;;;;;;;;;;;;;;26.61;37.13;97501.25;4167830;28;5670;-73
2022/07/13 09:50:18;;;;;;;;;;;;;;;26.65;37.41;97502.34;4167715;28;5657;-72
2022/07/13 09:52:31;;;;;;;;;;;;;;;26.65;37.08;97505.03;4167793;28;5676;-72
2022/07/13 09:54:43;;;;;;;;;;;;;;;26.67;37.32;97500.16;4167801;28;5661;-72
2022/07/13 09:56:49;;;;;;;;;;;;;;;26.69;36.97;97495.25;4167636;28;5669;-73
2022/07/13 09:58:54;;;;;;;;;;;;;;;26.72;37.20;97498.50;4167780;28;6290;-73
2022/07/13 10:01:02;;;;;;;;;;;;;;;26.73;37.05;97506.38;4165326;28;5647;-72
2022/07/13 10:03:05;;;;;;;;;;;;;;;26.76;37.01;97502.28;4167646;28;5098;-72
2022/07/13 10:05:10;;;;;;;;;;;;;;;26.79;37.09;97507.94;4158436;28;5653;-72
2022/07/13 10:07:13;;;;;;;;;;;;;;;26.82;36.71;97501.16;4184216;28;5654;-72
2022/07/13 10:09:21;;;;;;;;;;;;;;;26.85;36.88;97506.84;4144002;28;5952;-72
2022/07/13 10:11:24;;;;;;;;;;;;;;;26.88;36.98;97502.75;4151247;28;5758;-72
2022/07/13 10:13:28;;;;;;;;;;;;;;;26.87;36.92;97504.66;4149982;28;5800;-72
2022/07/13 10:15:31;;;;;;;;;;;;;;;26.90;36.56;97506.00;4150904;28;5759;-72
2022/07/13 10:17:37;;;;;;;;;;;;;;;26.89;36.49;97504.38;4150116;28;5823;-72
2022/07/13 10:19:45;;;;;;;;;;;;;;;26.88;36.42;97503.56;4151233;28;5762;-73
2022/07/13 10:22:01;;;;;;;;;;;;;;;26.86;36.58;97511.19;4150909;28;5743;-73
2022/07/13 10:24:15;;;;;;;;;;;;;;;26.87;36.47;97509.28;4151024;28;5762;-73
2022/07/13 10:26:20;;;;;;;;;;;;;;;26.87;36.36;97503.84;4151536;28;5873;-72
2022/07/13 10:28:22;;;;;;;;;;;;;;;26.91;36.45;97513.03;4150961;28;5762;-72
2022/07/13 10:30:26;;;;;;;;;;;;;;;26.89;36.18;97499.75;4151043;28;5887;-72
2022/07/13 10:32:31;;;;;;;;;;;;;;;26.91;36.01;97508.41;4151117;28;5849;-72
2022/07/13 10:34:55;;;;;;;;;;;;;;;26.94;36.00;97512.47;4150917;28;5778;-73
2022/07/13 10:37:00;;;;;;;;;;;;;;;26.94;35.86;97507.03;4151304;28;5778;-71
2022/07/13 10:39:11;;;;;;;;;;;;;;;26.97;35.83;97515.44;4151112;28;5814;-73
2022/07/13 10:41:21;;;;;;;;;;;;;;;26.98;35.92;97511.66;4149963;28;5795;-71
2022/07/13 10:43:24;;;;;;;;;;;;;;;26.97;35.99;97495.66;4151066;28;5750;-72
2022/07/13 10:45:42;;;;;;;;;;;;;;;27.02;35.62;97509.19;4151314;28;5817;-72
2022/07/13 10:47:45;;;;;;;;;;;;;;;27.05;35.96;97508.63;4154228;28;5850;-71
2022/07/13 10:49:50;;;;;;;;;;;;;;;27.08;35.50;97499.94;4152744;28;5898;-73
2022/07/13 10:51:57;;;;;;;;;;;;;;;27.08;35.64;97508.09;4154363;28;6450;-73
2022/07/13 10:54:12;;;;;;;;;;;;;;;27.12;35.67;97508.31;4153987;28;6462;-73
2022/07/13 10:56:16;;;;;;;;;;;;;;;27.15;35.21;97508.56;4153922;28;6429;-73
2022/07/13 10:58:45;;;;;;;;;;;;;;;27.17;35.33;97508.28;4152878;28;5910;-73
2022/07/13 11:00:48;;;;;;;;;;;;;;;27.19;35.17;97503.41;4145570;28;5851;-73
2022/07/13 11:02:55;;;;;;;;;;;;;;;27.20;35.15;97494.97;4137460;28;5780;-73
2022/07/13 11:05:01;;;;;;;;;;;;;;;27.23;34.97;97499.00;4137583;28;5792;-73
2022/07/13 11:07:09;;;;;;;;;;;;;;;27.22;35.07;97503.63;4137402;28;5792;-72
2022/07/13 11:09:15;;;;;;;;;;;;;;;27.28;35.32;97497.06;4147511;28;5666;-72
2022/07/13 11:11:18;;;;;;;;;;;;;;;27.30;34.88;97504.94;4170037;28;5772;-73
2022/07/13 11:13:27;;;;;;;;;;;;;;;27.31;34.83;97495.69;4152629;28;5195;-71
2022/07/13 11:15:47;;;;;;;;;;;;;;;27.33;35.09;97503.56;4169950;28;5689;-71
2022/07/13 11:17:53;;;;;;;;;;;;;;;27.36;34.75;97494.84;4169930;28;5657;-72
2022/07/13 11:19:58;;;;;;;;;;;;;;;27.38;35.00;97489.94;4170177;28;5733;-72
2022/07/13 11:22:07;;;;;;;;;;;;;;;27.40;34.87;97493.97;4169950;28;6340;-72
2022/07/13 11:27:08;;;;;;;;;;;;;;;27.43;34.53;97492.63;4152109;28;5808;-72
2022/07/13 11:29:18;;;;;;;;;;;;;;;27.43;34.84;97492.63;4167673;28;5661;-72
2022/07/13 11:31:22;;;;;;;;;;;;;;;27.45;34.70;97485.00;4169392;28;5685;-72
2022/07/13 11:33:26;;;;;;;;;;;;;;;27.47;34.56;97488.22;4175820;28;5874;-72
2022/07/13 11:35:28;;;;;;;;;;;;;;;27.49;34.49;97480.59;4183772;28;6584;-73
2022/07/13 11:37:32;;;;;;;;;;;;;;;27.52;34.24;97488.16;4176910;28;5833;-73
2022/07/13 11:39:37;;;;;;;;;;;;;;;27.53;34.39;97482.47;4166952;28;6458;-73
2022/07/13 11:41:45;;;;;;;;;;;;;;;27.53;34.38;97477.03;4174606;28;5820;-70
2022/07/13 11:43:53;;;;;;;;;;;;;;;27.54;34.47;97465.09;4180158;28;5697;-70
2022/07/13 11:45:56;;;;;;;;;;;;;;;27.54;34.02;97469.72;4167156;28;6913;-70
2022/07/13 11:48:00;;;;;;;;;;;;;;;27.60;34.07;97465.84;4182621;28;5745;-71
2022/07/13 11:50:04;;;;;;;;;;;;;;;27.62;33.89;97469.06;4181827;28;5760;-71
2022/07/13 11:52:07;;;;;;;;;;;;;;;27.66;33.80;97464.72;4157652;28;5864;-71
2022/07/13 11:54:12;;;;;;;;;;;;;;;27.69;33.99;97458.72;4172162;28;5753;-71
2022/07/13 11:56:17;;;;;;;;;;;;;;;27.70;33.95;97467.69;4176899;28;5764;-71
2022/07/13 11:58:25;;;;;;;;;;;;;;;27.71;34.01;97461.94;4177662;28;5864;-72
2022/07/13 12:00:29;;;;;;;;;;;;;;;27.68;34.00;97462.53;4178211;28;5095;-70
2022/07/13 12:02:32;;;;;;;;;;;;;;;27.70;33.91;97465.78;4180510;28;5871;-71
2022/07/13 12:04:35;;;;;;;;;;;;;;;27.71;33.50;97459.25;4180719;28;5923;-71
2022/07/13 12:06:38;;;;;;;;;;;;;;;27.73;33.50;97453.50;4181255;28;5713;-71
2022/07/13 12:08:44;;;;;;;;;;;;;;;27.75;33.73;97451.34;4180732;28;5566;-70
2022/07/13 12:10:46;;;;;;;;;;;;;;;27.76;33.64;97451.06;4182640;28;5075;-70
2022/07/13 12:12:51;;;;;;;;;;;;;;;27.75;33.38;97440.47;4166169;28;5853;-70
2022/07/13 12:14:56;;;;;;;;;;;;;;;27.80;33.53;97448.56;4177663;28;5850;-70
2022/07/13 12:17:00;;;;;;;;;;;;;;;27.84;33.23;97444.16;4168393;28;5848;-70
2022/07/13 12:19:08;;;;;;;;;;;;;;;27.83;33.64;97434.38;4163741;28;5776;-71
2022/07/13 12:21:11;;;;;;;;;;;;;;;27.83;33.36;97437.91;4166365;28;5990;-71
2022/07/13 12:23:17;;;;;;;;;;;;;;;27.82;33.69;97430.06;4167374;28;5822;-71
2022/07/13 12:25:25;;;;;;;;;;;;;;;27.86;33.44;97436.53;4170131;28;5901;-71
2022/07/13 12:27:29;;;;;;;;;;;;;;;27.91;33.42;97428.34;4164658;28;5768;-71
2022/07/13 12:29:35;;;;;;;;;;;;;;;27.96;33.41;97430.97;4173647;28;5753;-71
2022/07/13 12:31:38;;;;;;;;;;;;;;;27.94;33.46;97421.50;4182076;28;5685;-70
2022/07/13 12:33:43;;;;;;;;;;;;;;;27.95;33.32;97423.13;4181936;28;5769;-70
2022/07/13 12:35:46;;;;;;;;;;;;;;;27.97;33.19;97420.91;4182564;28;5753;-70
2022/07/13 12:37:52;;;;;;;;;;;;;;;28.01;33.27;97416.53;4177469;28;5871;-70
2022/07/13 12:39:56;;;;;;;;;;;;;;;28.01;33.35;97419.25;4179654;28;5745;-70
2022/07/13 12:41:59;;;;;;;;;;;;;;;28.02;33.28;97412.72;4182594;28;5745;-71
2022/07/13 12:44:04;;;;;;;;;;;;;;;28.00;33.24;97418.44;4181515;28;5723;-71
2022/07/13 12:46:09;;;;;;;;;;;;;;;28.02;33.21;97412.72;4181397;28;5750;-71
2022/07/13 12:48:15;;;;;;;;;;;;;;;28.08;33.34;97417.78;4174018;28;5765;-70
2022/07/13 12:50:29;;;;;;;;;;;;;;;28.09;33.10;97407.75;4175493;28;6575;-71
2022/07/13 12:52:34;;;;;;;;;;;;;;;28.10;33.25;97409.38;4178126;28;5735;-71
2022/07/13 12:54:45;;;;;;;;;;;;;;;28.07;33.17;97404.50;4176961;28;5757;-72
2022/07/13 12:56:51;;;;;;;;;;;;;;;28.10;33.23;97403.94;4176699;28;5745;-74
2022/07/13 12:58:56;;;;;;;;;;;;;;;28.11;32.98;97402.81;4182079;28;5753;-74
2022/07/13 13:00:59;;;;;;;;;;;;;;;28.10;33.02;97403.94;4179812;28;5790;-74
2022/07/13 13:03:03;;;;;;;;;;;;;;;28.07;33.29;97399.06;4179360;28;5753;-74
2022/07/13 13:05:08;;;;;;;;;;;;;;;28.05;33.08;97402.06;4175642;28;5749;-73
2022/07/13 13:07:11;;;;;;;;;;;;;;;28.07;33.31;97393.63;4175844;28;6487;-74
2022/07/13 13:09:17;;;;;;;;;;;;;;;28.10;33.22;97398.50;4157485;28;5760;-71
2022/07/13 13:11:23;;;;;;;;;;;;;;;28.10;33.22;97395.78;4166115;28;5839;-77
2022/07/13 13:13:28;;;;;;;;;;;;;;;28.10;33.20;97388.44;4181511;28;5730;-80
2022/07/13 13:15:30;;;;;;;;;;;;;;;28.13;32.96;97403.34;4168822;28;5895;-76
2022/07/13 13:17:34;;;;;;;;;;;;;;;28.14;32.83;97388.66;4178749;28;6201;-75
2022/07/13 13:19:40;;;;;;;;;;;;;;;28.13;32.97;97387.03;4176220;28;5886;-71
2022/07/13 13:22:04;;;;;;;;;;;;;;;28.13;32.96;97389.75;4176648;28;5806;-71
2022/07/13 13:24:08;;;;;;;;;;;;;;;28.19;32.89;97385.03;4185853;28;5825;-71
2022/07/13 13:26:11;;;;;;;;;;;;;;;28.23;32.65;97380.66;4180214;28;5790;-73
2022/07/13 13:30:43;;;;;;;;;;;;;;;28.25;32.41;97383.88;4169496;28;5826;-75
2022/07/13 13:30:54;;;;;;;;;;;;;;;28.28;32.67;97381.41;4173351;28;5738;-74
2022/07/13 13:32:57;;;;;;;;;;;;;;;28.27;32.21;97378.94;4162510;28;5892;-74
2022/07/13 13:35:02;;;;;;;;;;;;;;;28.28;32.15;97373.25;4191181;28;5738;-73
2022/07/13 13:37:06;;;;;;;;;;;;;;;28.31;32.04;97369.94;4180188;28;5761;-72
2022/07/13 13:39:09;;;;;;;;;;;;;;;28.29;32.21;97374.88;4158822;28;5784;-73
2022/07/13 13:41:12;;;;;;;;;;;;;;;28.26;32.08;97364.56;4170668;28;8365;-77
2022/07/13 13:43:15;;;;;;;;;;;;;;;28.24;32.24;97365.97;4170459;28;5860;-76
2022/07/13 13:45:18;;;;;;;;;;;;;;;28.21;32.64;97367.34;4162541;28;5673;-74
2022/07/13 13:47:21;;;;;;;;;;;;;;;28.23;32.38;97359.72;4180075;28;5678;-71
2022/07/13 13:49:25;;;;;;;;;;;;;;;28.19;32.50;97353.22;4180942;28;5674;-72
2022/07/13 13:51:31;;;;;;;;;;;;;;;28.23;32.42;97356.19;4182225;28;5745;-69
2022/07/13 13:53:54;;;;;;;;;;;;;;;28.26;32.49;97359.13;4176580;28;5654;-69
2022/07/13 13:55:57;;;;;;;;;;;;;;;28.25;32.56;97359.41;4174899;28;5830;-73
2022/07/13 13:58:01;;;;;;;;;;;;;;;28.23;32.59;97358.91;4182916;28;5715;-72
2022/07/13 14:00:23;;;;;;;;;;;;;;;28.22;32.73;97355.38;4177040;28;5678;-75
2022/07/13 14:02:29;;;;;;;;;;;;;;;28.21;32.83;97353.75;4178447;28;5638;-73
2022/07/13 14:04:33;;;;;;;;;;;;;;;28.22;32.76;97352.66;4178425;28;5880;-71
2022/07/13 14:06:37;;;;;;;;;;;;;;;28.20;32.99;97346.72;4178615;28;5734;-75
2022/07/13 14:08:43;;;;;;;;;;;;;;;28.24;32.99;97342.31;4177120;28;5877;-72
2022/07/13 14:10:47;;;;;;;;;;;;;;;28.32;32.85;97349.03;4173974;28;5662;-70
2022/07/13 14:13:09;;;;;;;;;;;;;;;28.37;33.19;97344.31;4174579;28;5777;-71
2022/07/13 14:15:12;;;;;;;;;;;;;;;28.39;33.06;97338.56;4178229;28;5903;-72
2022/07/13 14:17:15;;;;;;;;;;;;;;;28.44;32.91;97343.16;4182741;28;5655;-71
2022/07/13 14:19:18;;;;;;;;;;;;;;;28.43;33.04;97342.34;4182354;28;5651;-77
2022/07/13 14:21:21;;;;;;;;;;;;;;;28.47;32.99;97342.53;4186620;28;5701;-75
2022/07/13 14:23:26;;;;;;;;;;;;;;;28.48;33.12;97339.53;4179874;28;5738;-71
2022/07/13 14:25:29;;;;;;;;;;;;;;;28.49;33.00;97337.63;4172232;28;5880;-72
2022/07/13 14:27:32;;;;;;;;;;;;;;;28.49;32.88;97340.34;4186789;28;5644;-71
2022/07/13 14:29:35;;;;;;;;;;;;;;;28.51;33.13;97343.56;4184891;28;5714;-72
2022/07/13 14:31:38;;;;;;;;;;;;;;;28.53;33.01;97342.16;4180003;28;5860;-72
2022/07/13 14:33:41;;;;;;;;;;;;;;;28.50;32.92;97337.31;4186552;28;5832;-75
2022/07/13 14:35:45;;;;;;;;;;;;;;;28.53;33.13;97339.44;4178302;28;5745;-74
2022/07/13 14:37:48;;;;;;;;;;;;;;;28.56;32.98;97338.06;4177597;28;5654;-73
2022/07/13 14:40:13;;;;;;;;;;;;;;;28.54;32.96;97332.09;4171667;28;5706;-73
2022/07/13 14:42:16;;;;;;;;;;;;;;;28.52;32.94;97337.03;4171025;28;5657;-72
2022/07/13 14:44:19;;;;;;;;;;;;;;;28.47;32.95;97340.63;4184474;28;6991;-73
2022/07/13 14:46:23;;;;;;;;;;;;;;;28.46;33.16;97335.50;4187128;28;5829;-74
2022/07/13 14:48:29;;;;;;;;;;;;;;;28.45;33.15;97340.13;4171680;28;5809;-74
2022/07/13 14:50:52;;;;;;;;;;;;;;;28.47;33.31;97337.91;4182698;28;5670;-75
2022/07/13 14:53:12;;;;;;;;;;;;;;;28.51;33.26;97338.94;4183621;28;5880;-80
2022/07/13 14:55:17;;;;;;;;;;;;;;;28.56;33.29;97344.31;4188285;28;5822;-71
2022/07/13 14:57:20;;;;;;;;;;;;;;;28.61;33.08;97335.25;4184998;28;5731;-71
2022/07/13 14:59:23;;;;;;;;;;;;;;;28.61;33.26;97343.41;4185003;28;5643;-71
2022/07/13 15:01:26;;;;;;;;;;;;;;;28.61;33.23;97337.97;4182170;28;5883;-72
2022/07/13 15:03:29;;;;;;;;;;;;;;;28.61;33.02;97337.97;4185470;28;5725;-73
2022/07/13 15:05:32;;;;;;;;;;;;;;;28.60;33.16;97331.72;4167904;28;5669;-72
2022/07/13 15:07:36;;;;;;;;;;;;;;;28.64;33.29;97329.22;4167886;28;5650;-72
2022/07/13 15:09:39;;;;;;;;;;;;;;;28.63;33.17;97324.88;4147946;28;5777;-72
2022/07/13 15:12:04;;;;;;;;;;;;;;;28.63;33.27;97319.44;4141950;28;5775;-72
2022/07/13 15:14:07;;;;;;;;;;;;;;;28.59;33.46;97312.97;4152032;28;5992;-72
2022/07/13 15:16:12;;;;;;;;;;;;;;;28.62;33.16;97312.38;4152826;28;7300;-72
2022/07/13 15:18:15;;;;;;;;;;;;;;;28.69;33.08;97310.91;4153455;28;5779;-72
2022/07/13 15:20:18;;;;;;;;;;;;;;;28.70;32.96;97314.44;4154992;28;5827;-72
2022/07/13 15:22:22;;;;;;;;;;;;;;;28.69;32.85;97307.38;4152607;28;5886;-72
2022/07/13 15:24:24;;;;;;;;;;;;;;;28.69;32.96;97305.47;4153353;28;5847;-72
2022/07/13 15:26:28;;;;;;;;;;;;;;;28.67;32.92;97298.72;4154623;28;5779;-72
2022/07/13 15:28:32;;;;;;;;;;;;;;;28.64;33.23;97302.00;4150013;28;5834;-71
2022/07/13 15:30:36;;;;;;;;;;;;;;;28.68;32.85;97300.31;4151226;28;5941;-71
2022/07/13 15:32:39;;;;;;;;;;;;;;;28.65;32.72;97299.00;4150425;28;5763;-71
2022/07/13 15:34:42;;;;;;;;;;;;;;;28.63;33.04;97281.34;4150363;28;5673;-71
2022/07/13 15:36:53;;;;;;;;;;;;;;;28.71;32.78;97288.84;4149978;28;5983;-71
2022/07/13 15:38:56;;;;;;;;;;;;;;;28.68;32.99;97284.81;4156467;28;5751;-71
2022/07/13 15:43:20;;;;;;;;;;;;;;;28.59;32.81;97285.78;4142689;28;5847;-72
2022/07/13 15:45:25;;;;;;;;;;;;;;;28.55;33.00;97287.50;4154712;28;5895;-71
2022/07/13 15:47:29;;;;;;;;;;;;;;;28.51;33.19;97284.53;4158358;28;6384;-71
2022/07/13 15:49:32;;;;;;;;;;;;;;;28.49;32.94;97275.06;4146154;28;5859;-71
2022/07/13 15:51:35;;;;;;;;;;;;;;;28.47;33.06;97277.28;4144861;28;5763;-72
2022/07/13 15:53:38;;;;;;;;;;;;;;;28.47;33.10;97282.72;4152482;28;7336;-72
2022/07/13 15:55:41;;;;;;;;;;;;;;;28.45;33.08;97268.63;4156849;28;6525;-72
2022/07/13 15:57:44;;;;;;;;;;;;;;;28.45;33.03;97266.69;4152732;28;6227;-72
2022/07/13 15:59:52;;;;;;;;;;;;;;;28.49;33.10;97264.19;4156038;28;5946;-72
2022/07/13 16:01:56;;;;;;;;;;;;;;;28.49;33.03;97264.19;4149540;28;5961;-72
2022/07/13 16:03:59;;;;;;;;;;;;;;;28.51;33.14;97256.53;4146994;28;5934;-72
2022/07/13 16:06:02;;;;;;;;;;;;;;;28.53;33.17;97259.75;4146134;28;5807;-72
2022/07/13 16:08:05;;;;;;;;;;;;;;;28.52;33.07;97256.22;4149210;28;6030;-73
2022/07/13 16:10:09;;;;;;;;;;;;;;;28.53;33.09;97260.56;4175933;28;5654;-72
2022/07/13 16:12:12;;;;;;;;;;;;;;;28.56;32.91;97260.00;4179075;28;5801;-72
2022/07/13 16:14:15;;;;;;;;;;;;;;;28.56;32.80;97249.13;4180826;28;5777;-73
2022/07/13 16:16:18;;;;;;;;;;;;;;;28.58;32.93;97246.09;4183346;28;5766;-72
2022/07/13 16:18:22;;;;;;;;;;;;;;;28.55;32.91;97241.25;4184022;28;5761;-72
2022/07/13 16:20:25;;;;;;;;;;;;;;;28.52;32.85;97247.28;4178980;28;5732;-72
2022/07/13 16:22:29;;;;;;;;;;;;;;;28.54;33.13;97236.91;4175127;28;5726;-72
2022/07/13 16:24:32;;;;;;;;;;;;;;;28.70;32.74;97241.78;4169921;28;5834;-72
2022/07/13 16:26:35;;;;;;;;;;;;;;;28.76;32.64;97236.25;4168655;28;5733;-73
2022/07/13 16:28:39;;;;;;;;;;;;;;;28.75;32.64;97240.88;4178756;28;5099;-73
2022/07/13 16:30:42;;;;;;;;;;;;;;;28.71;32.66;97229.00;4168276;28;5740;-72
2022/07/13 16:32:47;;;;;;;;;;;;;;;28.68;32.49;97235.84;4169084;28;5639;-73
2022/07/13 16:34:57;;;;;;;;;;;;;;;28.66;32.39;97229.09;4169732;28;5781;-73
2022/07/13 16:37:00;;;;;;;;;;;;;;;28.73;32.43;97237.66;4175717;28;5782;-73
2022/07/13 16:39:03;;;;;;;;;;;;;;;28.75;32.22;97231.91;4173811;28;5705;-74
2022/07/13 16:41:06;;;;;;;;;;;;;;;28.78;32.57;97236.78;4147464;28;5822;-74
2022/07/13 16:43:09;;;;;;;;;;;;;;;28.75;32.38;97235.44;4181602;28;5749;-74
2022/07/13 16:45:15;;;;;;;;;;;;;;;28.70;32.45;97238.25;4181507;28;5805;-74
2022/07/13 16:47:18;;;;;;;;;;;;;;;28.69;32.56;97236.66;4179415;28;5848;-74
2022/07/13 16:49:21;;;;;;;;;;;;;;;28.66;32.87;97229.91;4181130;28;5749;-73
2022/07/13 16:51:26;;;;;;;;;;;;;;;28.63;32.61;97237.84;4178615;28;5786;-73
2022/07/13 16:53:29;;;;;;;;;;;;;;;28.66;32.75;97237.25;4169600;28;5848;-73
2022/07/13 16:55:31;;;;;;;;;;;;;;;28.67;32.62;97236.16;4178034;28;5821;-73
2022/07/13 16:57:36;;;;;;;;;;;;;;;28.67;32.91;97241.59;4172034;28;5785;-73
2022/07/13 16:59:39;;;;;;;;;;;;;;;28.63;32.95;97233.19;4166254;28;5840;-73
2022/07/13 17:01:42;;;;;;;;;;;;;;;28.65;32.90;97230.19;4174684;28;5666;-72
2022/07/13 17:03:45;;;;;;;;;;;;;;;28.64;32.82;97234.81;4159146;28;5780;-73
2022/07/13 17:05:48;;;;;;;;;;;;;;;28.62;33.15;97236.22;4181528;28;5749;-73
2022/07/13 17:07:53;;;;;;;;;;;;;;;28.61;33.08;97229.16;4182029;28;5750;-73
2022/07/13 17:09:56;;;;;;;;;;;;;;;28.61;33.11;97232.69;4176970;28;5821;-73
2022/07/13 17:11:59;;;;;;;;;;;;;;;28.61;32.92;97234.59;4170305;28;5762;-73
2022/07/13 17:14:02;;;;;;;;;;;;;;;28.59;33.17;97231.38;4165308;28;5836;-73
2022/07/13 17:16:06;;;;;;;;;;;;;;;28.56;33.38;97226.56;4162894;28;5772;-73
2022/07/13 17:18:10;;;;;;;;;;;;;;;28.58;33.19;97229.78;4179790;28;5769;-73
2022/07/13 17:20:13;;;;;;;;;;;;;;;28.60;33.54;97222.13;4177269;28;5843;-73
2022/07/13 17:22:16;;;;;;;;;;;;;;;28.65;33.74;97222.00;4165241;28;5833;-73
2022/07/13 17:24:21;;;;;;;;;;;;;;;28.63;33.51;97222.31;4165132;28;5839;-73
2022/07/13 17:26:25;;;;;;;;;;;;;;;28.63;33.51;97226.94;4165161;28;5912;-73